Time;durP1;ratioP1;P1;durP2;ratioP2;P2;SDS_P1;SDS_P2;PMS_P1;PMS_P2;Temp;Humidity;BMP_temperature;BMP_pressure;BME280_temperature;BME280_humidity;BME280_pressure;Samples;Min_cycle;Max_cycle;Signal;HPM_P1;HPM_P2
2021/09/14 00:02:18;;;;;;;11.45;7.20;;;;;;;;;;1891534;76;21015;-48
2021/09/14 00:04:47;;;;;;;12.13;7.75;;;;;;;;;;1891666;76;21050;-50
2021/09/14 00:07:16;;;;;;;13.55;7.40;;;;;;;;;;1891536;76;21081;-49
2021/09/14 00:09:45;;;;;;;10.60;7.22;;;;;;;;;;1891700;76;21039;-50
2021/09/14 00:12:13;;;;;;;8.50;7.67;;;;;;;;;;1891573;76;21097;-49
2021/09/14 00:14:42;;;;;;;11.28;6.83;;;;;;;;;;1891687;75;21492;-48
2021/09/14 00:17:11;;;;;;;8.43;7.15;;;;;;;;;;1891576;76;21030;-49
2021/09/14 00:19:40;;;;;;;8.10;6.70;;;;;;;;;;1891668;76;21034;-49
2021/09/14 00:22:08;;;;;;;9.38;7.25;;;;;;;;;;1891679;76;21022;-50
2021/09/14 00:24:37;;;;;;;11.73;7.37;;;;;;;;;;1891636;75;21030;-50
2021/09/14 00:27:06;;;;;;;11.15;7.10;;;;;;;;;;1891500;76;21148;-48
2021/09/14 00:29:35;;;;;;;8.68;6.60;;;;;;;;;;1891543;76;21113;-49
2021/09/14 00:32:04;;;;;;;9.43;6.90;;;;;;;;;;1891502;75;21102;-48
2021/09/14 00:34:33;;;;;;;8.15;6.53;;;;;;;;;;1891551;76;21030;-50
2021/09/14 00:37:04;;;;;;;10.05;6.87;;;;;;;;;;1891447;76;21003;-51
2021/09/14 00:39:33;;;;;;;11.08;7.33;;;;;;;;;;1891462;76;21030;-50
2021/09/14 00:42:01;;;;;;;7.55;6.80;;;;;;;;;;1891371;76;21096;-46
2021/09/14 00:44:31;;;;;;;8.45;6.55;;;;;;;;;;1891561;76;21033;-50
2021/09/14 00:46:59;;;;;;;7.03;6.33;;;;;;;;;;1891511;75;21121;-50
2021/09/14 00:49:28;;;;;;;9.08;6.67;;;;;;;;;;1891604;76;21115;-50
2021/09/14 00:51:57;;;;;;;10.63;7.35;;;;;;;;;;1891504;76;21027;-49
2021/09/14 00:54:27;;;;;;;8.95;6.83;;;;;;;;;;1891486;76;21271;-49
2021/09/14 00:56:57;;;;;;;12.98;6.97;;;;;;;;;;1891521;76;21030;-49
2021/09/14 00:59:26;;;;;;;12.00;7.10;;;;;;;;;;1890891;75;21074;-50
2021/09/14 01:01:55;;;;;;;11.08;7.65;;;;;;;;;;1891660;76;21022;-49
2021/09/14 01:04:24;;;;;;;12.45;7.70;;;;;;;;;;1891660;76;21007;-50
2021/09/14 01:06:53;;;;;;;13.08;7.65;;;;;;;;;;1891657;76;21034;-49
2021/09/14 01:09:21;;;;;;;9.68;7.10;;;;;;;;;;1891855;76;21136;-49
2021/09/14 01:11:51;;;;;;;8.05;7.17;;;;;;;;;;1891637;76;21084;-49
2021/09/14 01:14:20;;;;;;;8.30;7.10;;;;;;;;;;1891290;75;21116;-50
2021/09/14 01:16:49;;;;;;;9.20;6.72;;;;;;;;;;1892024;76;21473;-49
2021/09/14 01:19:18;;;;;;;7.58;6.87;;;;;;;;;;1892057;75;21050;-49
2021/09/14 01:21:47;;;;;;;8.55;5.62;;;;;;;;;;1891892;76;21077;-49
2021/09/14 01:24:16;;;;;;;11.83;6.83;;;;;;;;;;1892070;76;21454;-48
2021/09/14 01:26:46;;;;;;;8.35;6.67;;;;;;;;;;1891349;75;21081;-50
2021/09/14 01:30:12;;;;;;;8.38;6.20;;;;;;;;;;1892008;76;21089;-49
2021/09/14 01:31:46;;;;;;;10.78;6.70;;;;;;;;;;1888322;76;21066;-48
2021/09/14 01:34:15;;;;;;;7.42;6.72;;;;;;;;;;1892048;75;21018;-50
2021/09/14 01:36:44;;;;;;;10.40;7.50;;;;;;;;;;1892121;76;21062;-49
2021/09/14 01:39:13;;;;;;;8.45;6.42;;;;;;;;;;1891910;76;21112;-49
2021/09/14 01:41:43;;;;;;;9.88;7.00;;;;;;;;;;1892053;76;21042;-47
2021/09/14 01:44:12;;;;;;;8.93;7.70;;;;;;;;;;1892052;76;21034;-47
2021/09/14 01:46:40;;;;;;;10.18;7.25;;;;;;;;;;1892009;76;21034;-49
2021/09/14 01:49:09;;;;;;;11.08;7.58;;;;;;;;;;1891924;76;21026;-49
2021/09/14 01:51:38;;;;;;;11.73;6.92;;;;;;;;;;1891989;76;21092;-49
2021/09/14 01:54:07;;;;;;;8.68;6.83;;;;;;;;;;1891839;76;21038;-49
2021/09/14 01:56:37;;;;;;;7.65;6.85;;;;;;;;;;1891921;75;21081;-46
2021/09/14 01:59:06;;;;;;;13.75;7.10;;;;;;;;;;1891903;75;21073;-50
2021/09/14 02:01:40;;;;;;;9.18;7.80;;;;;;;;;;1891783;75;21147;-49
2021/09/14 02:56:22;;;;;;;22.95;9.58;;;;;;;;;;1872815;75;21051;-48
2021/09/14 02:58:44;;;;;;;10.32;6.53;;;;;;;;;;1858284;77;21481;-48
2021/09/14 03:01:13;;;;;;;9.23;6.40;;;;;;;;;;1872774;75;21512;-47
2021/09/14 03:03:48;;;;;;;9.15;6.87;;;;;;;;;;1872736;76;21058;-48
2021/09/14 03:06:15;;;;;;;10.58;6.90;;;;;;;;;;1872790;76;21031;-47
2021/09/14 03:08:44;;;;;;;11.95;6.20;;;;;;;;;;1872858;77;21033;-50
2021/09/14 03:11:15;;;;;;;9.13;7.60;;;;;;;;;;1872797;77;21097;-50
2021/09/14 03:13:45;;;;;;;9.40;7.28;;;;;;;;;;1870774;76;21079;-46
2021/09/14 03:16:15;;;;;;;10.20;7.53;;;;;;;;;;1885684;75;21034;-49
2021/09/14 03:18:44;;;;;;;9.13;6.60;;;;;;;;;;1891754;76;21054;-49
2021/09/14 03:21:14;;;;;;;9.40;6.83;;;;;;;;;;1891793;76;21054;-47
2021/09/14 03:23:42;;;;;;;18.73;7.62;;;;;;;;;;1891928;76;20998;-47
2021/09/14 03:26:12;;;;;;;8.20;7.30;;;;;;;;;;1891906;76;21155;-49
2021/09/14 03:28:41;;;;;;;8.40;7.17;;;;;;;;;;1891767;76;21046;-48
2021/09/14 03:31:10;;;;;;;11.63;7.28;;;;;;;;;;1891987;76;21171;-50
2021/09/14 03:33:39;;;;;;;13.00;6.70;;;;;;;;;;1891905;75;21034;-48
2021/09/14 03:36:09;;;;;;;11.05;7.53;;;;;;;;;;1891814;76;21034;-49
2021/09/14 03:38:38;;;;;;;12.33;7.45;;;;;;;;;;1891853;76;21105;-50
2021/09/14 03:41:07;;;;;;;9.05;6.83;;;;;;;;;;1891731;76;21093;-48
2021/09/14 03:43:36;;;;;;;10.15;6.78;;;;;;;;;;1891892;76;21046;-47
2021/09/14 03:46:05;;;;;;;9.28;6.67;;;;;;;;;;1891773;75;21047;-48
2021/09/14 03:48:35;;;;;;;9.65;6.90;;;;;;;;;;1891779;76;21096;-47
2021/09/14 03:51:04;;;;;;;13.32;7.00;;;;;;;;;;1891877;76;21104;-49
2021/09/14 03:53:33;;;;;;;9.25;6.92;;;;;;;;;;1891841;76;21113;-50
2021/09/14 03:56:02;;;;;;;13.20;6.40;;;;;;;;;;1891813;75;21159;-49
2021/09/14 03:58:32;;;;;;;7.78;6.72;;;;;;;;;;1891889;76;21022;-48
2021/09/14 04:01:01;;;;;;;16.60;6.92;;;;;;;;;;1891936;76;21034;-49
2021/09/14 04:06:22;;;;;;;14.13;7.12;;;;;;;;;;1891854;76;21054;-48
2021/09/14 04:08:55;;;;;;;10.88;6.92;;;;;;;;;;1890512;75;21014;-48
2021/09/14 04:11:31;;;;;;;9.85;5.90;;;;;;;;;;1891260;75;21343;-49
2021/09/14 04:14:00;;;;;;;15.08;8.05;;;;;;;;;;1872270;76;21046;-50
2021/09/14 04:16:30;;;;;;;14.58;7.03;;;;;;;;;;1891613;76;21062;-50
2021/09/14 04:19:00;;;;;;;9.55;6.80;;;;;;;;;;1891549;76;21159;-49
2021/09/14 04:21:28;;;;;;;43.25;29.72;;;;;;;;;;1891570;76;20998;-49
2021/09/14 04:23:57;;;;;;;14.65;7.95;;;;;;;;;;1891499;76;21097;-48
2021/09/14 04:26:28;;;;;;;13.53;7.83;;;;;;;;;;1891211;75;21130;-49
2021/09/14 04:28:56;;;;;;;15.80;11.53;;;;;;;;;;1891586;75;21088;-49
2021/09/14 04:31:26;;;;;;;12.68;9.25;;;;;;;;;;1891446;75;21043;-47
2021/09/14 04:33:55;;;;;;;14.05;8.68;;;;;;;;;;1891492;76;21106;-47
2021/09/14 04:36:24;;;;;;;11.50;7.65;;;;;;;;;;1891662;75;21014;-50
2021/09/14 04:38:53;;;;;;;13.40;8.18;;;;;;;;;;1891568;75;21046;-45
2021/09/14 04:41:22;;;;;;;12.50;7.33;;;;;;;;;;1891595;76;20998;-48
2021/09/14 04:43:51;;;;;;;13.58;7.53;;;;;;;;;;1891481;76;21132;-48
2021/09/14 04:46:20;;;;;;;12.68;7.53;;;;;;;;;;1891465;76;21076;-47
2021/09/14 04:48:48;;;;;;;17.70;7.37;;;;;;;;;;1891583;76;21093;-48
2021/09/14 04:51:17;;;;;;;9.75;6.95;;;;;;;;;;1891417;75;21108;-49
2021/09/14 04:53:47;;;;;;;17.73;7.58;;;;;;;;;;1891545;75;21086;-49
2021/09/14 04:56:17;;;;;;;19.52;8.38;;;;;;;;;;1891419;76;21070;-49
2021/09/14 04:58:49;;;;;;;17.32;9.15;;;;;;;;;;1891497;76;21038;-46
2021/09/14 05:01:16;;;;;;;12.98;7.28;;;;;;;;;;1891373;75;21488;-47
2021/09/14 05:03:46;;;;;;;13.00;8.33;;;;;;;;;;1891569;76;21117;-46
2021/09/14 05:06:15;;;;;;;14.03;8.58;;;;;;;;;;1891530;76;21026;-46
2021/09/14 05:08:44;;;;;;;19.50;10.80;;;;;;;;;;1891388;76;21069;-48
2021/09/14 05:11:13;;;;;;;14.33;8.18;;;;;;;;;;1891498;76;21092;-45
2021/09/14 05:13:42;;;;;;;13.48;8.68;;;;;;;;;;1891446;76;21026;-46
2021/09/14 05:16:11;;;;;;;18.27;9.33;;;;;;;;;;1886213;75;21114;-47
2021/09/14 05:18:45;;;;;;;18.40;9.10;;;;;;;;;;1871710;75;21115;-48
2021/09/14 05:21:12;;;;;;;11.97;8.85;;;;;;;;;;1872774;76;21023;-44
2021/09/14 05:23:41;;;;;;;10.93;8.53;;;;;;;;;;1872962;76;21039;-47
2021/09/14 05:26:11;;;;;;;10.50;8.53;;;;;;;;;;1872829;77;21048;-48
2021/09/14 05:28:43;;;;;;;16.42;9.40;;;;;;;;;;1872789;76;21089;-46
2021/09/14 05:31:11;;;;;;;16.70;8.10;;;;;;;;;;1872726;77;21055;-47
2021/09/14 05:33:41;;;;;;;13.70;7.85;;;;;;;;;;1872807;76;21089;-48
2021/09/14 05:36:09;;;;;;;13.05;6.83;;;;;;;;;;1872783;77;21027;-48
2021/09/14 05:38:42;;;;;;;15.63;8.18;;;;;;;;;;1872815;75;21043;-46
2021/09/14 05:41:11;;;;;;;10.98;7.05;;;;;;;;;;1872838;76;20999;-48
2021/09/14 05:43:40;;;;;;;11.00;7.35;;;;;;;;;;1872766;76;21105;-48
2021/09/14 05:46:09;;;;;;;10.08;7.42;;;;;;;;;;1872691;76;21007;-47
2021/09/14 05:48:38;;;;;;;13.43;7.92;;;;;;;;;;1872703;77;21035;-46
2021/09/14 05:51:08;;;;;;;15.53;8.13;;;;;;;;;;1872722;77;21094;-48
2021/09/14 05:53:38;;;;;;;11.70;7.25;;;;;;;;;;1871247;75;21135;-46
2021/09/14 05:56:07;;;;;;;9.10;6.12;;;;;;;;;;1872715;76;21102;-47
2021/09/14 05:58:36;;;;;;;9.30;6.70;;;;;;;;;;1872835;77;21032;-49
2021/09/14 06:01:05;;;;;;;20.77;7.75;;;;;;;;;;1872598;76;21104;-49
2021/09/14 06:03:34;;;;;;;17.17;6.42;;;;;;;;;;1872760;77;21089;-46
2021/09/14 06:06:05;;;;;;;12.23;6.85;;;;;;;;;;1872764;77;21109;-46
2021/09/14 06:08:34;;;;;;;13.38;7.22;;;;;;;;;;1872581;76;21081;-47
2021/09/14 06:11:03;;;;;;;8.08;5.62;;;;;;;;;;1872686;77;21027;-46
2021/09/14 06:13:32;;;;;;;14.13;5.62;;;;;;;;;;1872722;75;21035;-49
2021/09/14 06:16:02;;;;;;;11.60;5.95;;;;;;;;;;1872616;75;21325;-50
2021/09/14 06:18:31;;;;;;;11.05;6.80;;;;;;;;;;1872729;75;21019;-46
2021/09/14 06:20:59;;;;;;;8.25;5.78;;;;;;;;;;1872631;76;21109;-48
2021/09/14 06:23:29;;;;;;;11.28;6.85;;;;;;;;;;1872862;76;21003;-46
2021/09/14 06:25:58;;;;;;;11.85;6.80;;;;;;;;;;1872618;76;21058;-49
2021/09/14 06:28:28;;;;;;;9.90;6.40;;;;;;;;;;1872563;76;21095;-48
2021/09/14 06:30:57;;;;;;;8.23;5.72;;;;;;;;;;1872707;77;21099;-46
2021/09/14 06:33:27;;;;;;;14.55;6.25;;;;;;;;;;1872596;76;21119;-46
2021/09/14 06:35:57;;;;;;;11.80;6.45;;;;;;;;;;1872870;76;21108;-49
2021/09/14 06:38:34;;;;;;;11.28;6.92;;;;;;;;;;1872737;75;21252;-49
2021/09/14 06:41:02;;;;;;;12.18;6.10;;;;;;;;;;1872688;77;21047;-46
2021/09/14 06:43:36;;;;;;;15.48;7.00;;;;;;;;;;1871189;76;21112;-47
2021/09/14 06:46:18;;;;;;;14.00;5.55;;;;;;;;;;1872557;77;21534;-48
2021/09/14 06:49:04;;;;;;;13.30;6.97;;;;;;;;;;1872332;75;21075;-47
2021/09/14 06:51:33;;;;;;;10.88;5.65;;;;;;;;;;1872721;76;21035;-49
2021/09/14 06:54:03;;;;;;;11.73;6.42;;;;;;;;;;1872714;77;21078;-45
2021/09/14 06:56:32;;;;;;;10.43;5.47;;;;;;;;;;1872822;75;21039;-46
2021/09/14 06:59:01;;;;;;;14.68;7.12;;;;;;;;;;1872740;76;21131;-49
2021/09/14 07:01:30;;;;;;;13.43;7.47;;;;;;;;;;1872904;76;21136;-49
2021/09/14 07:03:59;;;;;;;16.30;7.83;;;;;;;;;;1872817;77;21043;-46
2021/09/14 07:06:27;;;;;;;17.12;8.88;;;;;;;;;;1872828;76;21088;-47
2021/09/14 07:08:56;;;;;;;13.00;7.10;;;;;;;;;;1872792;75;21019;-46
2021/09/14 07:11:25;;;;;;;20.97;8.73;;;;;;;;;;1872813;76;21019;-49
2021/09/14 07:13:55;;;;;;;20.82;7.72;;;;;;;;;;1872763;76;21043;-48
2021/09/14 07:16:25;;;;;;;14.10;6.40;;;;;;;;;;1872740;77;21035;-48
2021/09/14 07:18:54;;;;;;;14.70;7.83;;;;;;;;;;1872831;77;21039;-49
2021/09/14 07:21:23;;;;;;;15.20;7.10;;;;;;;;;;1871502;76;21101;-46
2021/09/14 07:23:51;;;;;;;11.88;7.37;;;;;;;;;;1872127;75;21109;-45
2021/09/14 07:26:20;;;;;;;11.33;7.33;;;;;;;;;;1872296;76;21023;-47
2021/09/14 07:28:49;;;;;;;16.27;6.05;;;;;;;;;;1871963;77;21027;-45
2021/09/14 07:31:18;;;;;;;18.17;7.42;;;;;;;;;;1872070;77;21098;-45
2021/09/14 07:33:46;;;;;;;13.85;7.72;;;;;;;;;;1872135;76;21148;-45
2021/09/14 07:36:15;;;;;;;14.78;6.58;;;;;;;;;;1871972;77;21047;-47
2021/09/14 07:38:44;;;;;;;17.23;7.80;;;;;;;;;;1872193;75;21043;-45
2021/09/14 07:41:13;;;;;;;15.60;8.00;;;;;;;;;;1871985;76;21031;-47
2021/09/14 07:43:42;;;;;;;14.60;7.80;;;;;;;;;;1872090;77;21102;-47
2021/09/14 07:46:10;;;;;;;15.90;7.50;;;;;;;;;;1872236;77;21043;-46
2021/09/14 07:48:39;;;;;;;12.93;6.80;;;;;;;;;;1872102;76;21019;-46
2021/09/14 07:51:08;;;;;;;12.73;6.97;;;;;;;;;;1872014;77;21066;-47
2021/09/14 07:53:37;;;;;;;17.37;8.25;;;;;;;;;;1872099;77;21035;-45
2021/09/14 07:56:06;;;;;;;11.90;7.50;;;;;;;;;;1872025;77;21019;-45
2021/09/14 07:58:35;;;;;;;16.70;8.50;;;;;;;;;;1872110;75;21090;-48
2021/09/14 08:01:04;;;;;;;13.68;7.53;;;;;;;;;;1871779;77;21094;-46
2021/09/14 08:03:32;;;;;;;12.80;7.08;;;;;;;;;;1870759;76;21156;-46
2021/09/14 08:06:02;;;;;;;12.40;6.80;;;;;;;;;;1870786;77;21051;-43
2021/09/14 08:08:31;;;;;;;18.07;8.40;;;;;;;;;;1871214;76;21105;-43
2021/09/14 08:10:59;;;;;;;9.65;7.12;;;;;;;;;;1871182;76;21097;-45
2021/09/14 08:13:28;;;;;;;15.43;7.22;;;;;;;;;;1870218;76;21098;-45
2021/09/14 08:15:57;;;;;;;12.20;6.55;;;;;;;;;;1872475;75;21099;-44
2021/09/14 08:18:26;;;;;;;17.70;7.97;;;;;;;;;;1894366;75;21111;-43
2021/09/14 08:20:56;;;;;;;13.95;7.00;;;;;;;;;;1902088;75;21007;-44
2021/09/14 08:23:26;;;;;;;14.38;8.00;;;;;;;;;;1902229;75;21039;-45
2021/09/14 08:25:54;;;;;;;14.20;7.35;;;;;;;;;;1902386;75;21075;-47
2021/09/14 08:28:23;;;;;;;19.07;7.90;;;;;;;;;;1901904;75;21034;-45
2021/09/14 08:30:52;;;;;;;17.85;7.87;;;;;;;;;;1902440;75;21047;-44
2021/09/14 08:33:21;;;;;;;9.73;7.10;;;;;;;;;;1902072;75;21416;-45
2021/09/14 08:35:49;;;;;;;10.85;7.65;;;;;;;;;;1902328;75;21035;-46
2021/09/14 08:38:18;;;;;;;12.75;7.53;;;;;;;;;;1903546;75;21098;-44
2021/09/14 08:40:48;;;;;;;14.28;7.55;;;;;;;;;;1904160;75;21098;-46
2021/09/14 08:43:17;;;;;;;12.88;7.60;;;;;;;;;;1904080;75;20988;-44
2021/09/14 08:45:47;;;;;;;9.58;6.42;;;;;;;;;;1904308;75;21031;-44
2021/09/14 08:48:17;;;;;;;13.38;6.20;;;;;;;;;;1903751;75;20996;-44
2021/09/14 08:50:46;;;;;;;8.63;6.15;;;;;;;;;;1904201;75;21525;-47
2021/09/14 08:53:16;;;;;;;11.15;5.90;;;;;;;;;;1896162;74;21081;-44
2021/09/14 08:55:45;;;;;;;11.50;7.17;;;;;;;;;;1871780;75;21150;-44
2021/09/14 08:58:14;;;;;;;14.13;6.83;;;;;;;;;;1871802;76;21036;-44
2021/09/14 09:00:43;;;;;;;9.50;6.53;;;;;;;;;;1871433;77;21032;-45
2021/09/14 09:03:12;;;;;;;11.85;6.72;;;;;;;;;;1871759;75;21193;-48
2021/09/14 09:05:42;;;;;;;17.52;8.83;;;;;;;;;;1871892;75;21041;-47
2021/09/14 09:08:18;;;;;;;12.75;6.83;;;;;;;;;;1871854;75;21033;-47
2021/09/14 09:11:00;;;;;;;16.80;8.93;;;;;;;;;;1871989;76;21009;-44
2021/09/14 09:13:32;;;;;;;14.73;9.33;;;;;;;;;;1871843;77;21076;-45
2021/09/14 09:16:01;;;;;;;15.30;9.30;;;;;;;;;;1871184;77;21088;-46
2021/09/14 09:18:29;;;;;;;16.67;9.15;;;;;;;;;;1874882;75;21177;-45
2021/09/14 09:21:02;;;;;;;13.95;8.23;;;;;;;;;;1880565;75;21104;-46
2021/09/14 09:23:31;;;;;;;13.50;9.10;;;;;;;;;;1881069;75;21025;-46
2021/09/14 09:26:07;;;;;;;16.57;10.32;;;;;;;;;;1881151;75;21083;-46
2021/09/14 09:28:36;;;;;;;14.93;9.28;;;;;;;;;;1881259;75;21080;-46
2021/09/14 09:31:11;;;;;;;23.40;9.00;;;;;;;;;;1879477;75;21080;-44
2021/09/14 09:33:39;;;;;;;14.90;8.83;;;;;;;;;;1880862;75;21146;-47
2021/09/14 09:36:09;;;;;;;18.05;8.70;;;;;;;;;;1881007;75;21040;-46
2021/09/14 09:38:47;;;;;;;14.15;7.55;;;;;;;;;;1881000;76;21479;-48
2021/09/14 09:41:16;;;;;;;14.20;7.12;;;;;;;;;;1880648;75;21005;-45
2021/09/14 09:43:46;;;;;;;27.98;9.60;;;;;;;;;;1880882;75;21515;-45
2021/09/14 09:46:21;;;;;;;15.18;7.60;;;;;;;;;;1881483;76;21072;-47
2021/09/14 09:48:50;;;;;;;16.85;8.28;;;;;;;;;;1881627;75;21016;-50
2021/09/14 09:51:19;;;;;;;14.83;7.83;;;;;;;;;;1881556;75;21167;-47
2021/09/14 09:53:48;;;;;;;16.20;8.75;;;;;;;;;;1881595;76;21099;-47
2021/09/14 09:56:17;;;;;;;14.80;7.58;;;;;;;;;;1881547;75;21087;-48
2021/09/14 09:58:47;;;;;;;13.60;7.45;;;;;;;;;;1881674;75;21111;-46
2021/09/14 10:01:20;;;;;;;13.95;7.20;;;;;;;;;;1881596;76;21044;-45
2021/09/14 10:03:50;;;;;;;12.10;7.65;;;;;;;;;;1881506;75;21064;-44
2021/09/14 10:06:19;;;;;;;17.20;8.00;;;;;;;;;;1880706;75;21079;-48
2021/09/14 10:08:53;;;;;;;13.38;8.00;;;;;;;;;;1881585;75;21027;-49
2021/09/14 10:11:26;;;;;;;13.05;7.30;;;;;;;;;;1881609;75;21052;-48
2021/09/14 10:14:09;;;;;;;14.15;8.35;;;;;;;;;;1881521;75;21114;-46
2021/09/14 10:16:48;;;;;;;17.23;10.13;;;;;;;;;;1882314;76;21110;-46
2021/09/14 10:19:27;;;;;;;17.55;10.20;;;;;;;;;;1882293;75;21064;-47
2021/09/14 10:22:00;;;;;;;11.63;7.08;;;;;;;;;;1882290;75;21419;-46
2021/09/14 10:24:30;;;;;;;8.45;5.58;;;;;;;;;;1881833;76;21068;-48
2021/09/14 10:27:06;;;;;;;10.60;5.85;;;;;;;;;;1882426;75;21076;-49
2021/09/14 10:29:34;;;;;;;13.93;5.95;;;;;;;;;;1882155;75;21020;-49
2021/09/14 10:32:07;;;;;;;10.03;6.67;;;;;;;;;;1882154;76;21030;-46
2021/09/14 10:34:42;;;;;;;7.78;4.28;;;;;;;;;;1882160;75;21095;-48
2021/09/14 10:37:08;;;;;;;9.65;5.35;;;;;;;;;;1881695;75;21169;-47
2021/09/14 10:39:37;;;;;;;4.55;3.85;;;;;;;;;;1882249;75;21591;-46
2021/09/14 10:42:13;;;;;;;6.53;4.30;;;;;;;;;;1882401;75;21502;-49
2021/09/14 10:44:42;;;;;;;5.67;4.10;;;;;;;;;;1882337;75;21052;-45
2021/09/14 10:47:11;;;;;;;7.87;4.28;;;;;;;;;;1882377;75;21040;-45
2021/09/14 10:49:44;;;;;;;4.87;3.90;;;;;;;;;;1882295;75;21094;-48
2021/09/14 10:52:13;;;;;;;16.97;11.85;;;;;;;;;;1882316;75;21008;-49
2021/09/14 10:54:49;;;;;;;7.08;4.15;;;;;;;;;;1882121;75;21029;-45
2021/09/14 10:57:21;;;;;;;11.10;4.45;;;;;;;;;;1882305;75;21036;-46
2021/09/14 10:59:49;;;;;;;11.18;4.33;;;;;;;;;;1882187;75;21528;-48
2021/09/14 11:02:18;;;;;;;5.25;3.58;;;;;;;;;;1882050;75;21086;-50
2021/09/14 11:04:46;;;;;;;6.72;4.08;;;;;;;;;;1882257;76;21048;-47
2021/09/14 11:07:20;;;;;;;6.05;3.70;;;;;;;;;;1882138;75;21122;-49
2021/09/14 11:09:55;;;;;;;7.37;4.03;;;;;;;;;;1882242;75;21553;-49
2021/09/14 11:12:33;;;;;;;9.48;4.83;;;;;;;;;;1881892;75;21032;-46
2021/09/14 11:15:02;;;;;;;12.55;4.30;;;;;;;;;;1882218;75;21471;-46
2021/09/14 11:17:34;;;;;;;6.90;4.00;;;;;;;;;;1882310;75;21000;-48
2021/09/14 11:20:10;;;;;;;5.25;3.83;;;;;;;;;;1882313;75;21032;-46
2021/09/14 11:22:41;;;;;;;11.03;5.47;;;;;;;;;;1882163;75;21037;-48
2021/09/14 11:25:14;;;;;;;5.95;3.95;;;;;;;;;;1882307;75;21411;-48
2021/09/14 11:27:44;;;;;;;5.92;4.37;;;;;;;;;;1882310;76;21094;-49
2021/09/14 11:30:13;;;;;;;7.17;3.85;;;;;;;;;;1880841;75;21113;-49
2021/09/14 11:32:43;;;;;;;8.03;4.15;;;;;;;;;;1882300;75;21028;-45
2021/09/14 11:35:12;;;;;;;7.28;4.55;;;;;;;;;;1882124;75;21032;-47
2021/09/14 11:37:41;;;;;;;10.75;4.87;;;;;;;;;;1882232;76;21119;-47
2021/09/14 11:40:11;;;;;;;8.35;4.78;;;;;;;;;;1882217;76;21040;-48
2021/09/14 11:42:41;;;;;;;4.35;3.80;;;;;;;;;;1881039;75;21056;-49
2021/09/14 11:45:10;;;;;;;6.33;3.83;;;;;;;;;;1881093;75;21141;-48
2021/09/14 11:47:43;;;;;;;5.35;3.87;;;;;;;;;;1882244;76;21088;-47
2021/09/14 11:50:12;;;;;;;5.15;4.40;;;;;;;;;;1882140;75;21012;-49
2021/09/14 11:52:41;;;;;;;10.58;4.20;;;;;;;;;;1882178;75;21048;-46
2021/09/14 11:55:10;;;;;;;12.60;4.87;;;;;;;;;;1882182;75;21099;-45
2021/09/14 11:57:38;;;;;;;6.85;4.15;;;;;;;;;;1882232;75;21032;-45
2021/09/14 12:00:14;;;;;;;9.28;4.15;;;;;;;;;;1882257;76;21020;-49
2021/09/14 12:02:50;;;;;;;12.45;8.38;;;;;;;;;;1882229;75;21017;-48
2021/09/14 12:05:21;;;;;;;4.35;3.70;;;;;;;;;;1882432;75;21037;-48
2021/09/14 12:07:57;;;;;;;8.10;3.70;;;;;;;;;;1882157;75;21510;-46
2021/09/14 12:10:26;;;;;;;5.78;3.95;;;;;;;;;;1882260;75;21110;-45
2021/09/14 12:12:56;;;;;;;4.42;3.87;;;;;;;;;;1882311;76;21029;-46
2021/09/14 12:15:26;;;;;;;7.90;4.95;;;;;;;;;;1882304;75;21032;-47
2021/09/14 12:17:55;;;;;;;4.25;3.85;;;;;;;;;;1881892;75;21090;-49
2021/09/14 12:20:24;;;;;;;8.60;3.75;;;;;;;;;;1875444;75;21064;-47
2021/09/14 12:22:53;;;;;;;6.45;4.83;;;;;;;;;;1872763;75;21170;-47
2021/09/14 12:25:22;;;;;;;7.97;4.03;;;;;;;;;;1872838;76;21000;-48
2021/09/14 12:27:51;;;;;;;4.28;3.60;;;;;;;;;;1872703;76;21033;-49
2021/09/14 12:30:19;;;;;;;7.12;3.85;;;;;;;;;;1872690;77;21048;-46
2021/09/14 12:32:48;;;;;;;4.67;3.12;;;;;;;;;;1872980;76;20997;-48
2021/09/14 12:35:17;;;;;;;13.32;4.58;;;;;;;;;;1872851;77;21061;-48
2021/09/14 12:37:46;;;;;;;6.22;3.42;;;;;;;;;;1872877;76;21045;-45
2021/09/14 12:40:15;;;;;;;6.50;4.10;;;;;;;;;;1872928;75;21209;-46
2021/09/14 12:42:44;;;;;;;4.35;2.95;;;;;;;;;;1872960;77;21108;-46
2021/09/14 12:45:13;;;;;;;10.30;5.17;;;;;;;;;;1872914;75;21119;-49
2021/09/14 12:47:41;;;;;;;8.03;3.83;;;;;;;;;;1872843;75;21041;-46
2021/09/14 12:50:10;;;;;;;4.47;3.50;;;;;;;;;;1872838;75;21111;-49
2021/09/14 12:52:40;;;;;;;4.80;3.20;;;;;;;;;;1872911;75;21108;-45
2021/09/14 12:55:09;;;;;;;7.45;3.60;;;;;;;;;;1872877;77;21098;-48
2021/09/14 12:57:38;;;;;;;5.83;3.42;;;;;;;;;;1872900;75;21045;-45
2021/09/14 13:00:07;;;;;;;5.67;3.62;;;;;;;;;;1872947;75;21135;-45
2021/09/14 13:02:36;;;;;;;7.83;4.20;;;;;;;;;;1873077;75;21017;-46
2021/09/14 13:05:05;;;;;;;5.33;3.70;;;;;;;;;;1873015;75;21037;-47
2021/09/14 13:07:34;;;;;;;6.50;4.15;;;;;;;;;;1872999;75;21017;-48
2021/09/14 13:10:05;;;;;;;10.78;5.87;;;;;;;;;;1872835;75;21111;-49
2021/09/14 13:12:33;;;;;;;4.97;3.55;;;;;;;;;;1873191;76;21560;-46
2021/09/14 13:17:48;;;;;;;28.10;17.67;;;;;;;;;;1872951;76;21049;-45
2021/09/14 13:20:18;;;;;;;9.70;3.70;;;;;;;;;;1872983;75;21064;-46
2021/09/14 13:22:46;;;;;;;5.15;3.35;;;;;;;;;;1872952;76;21147;-47
2021/09/14 13:25:15;;;;;;;4.42;3.25;;;;;;;;;;1873071;75;21045;-49
2021/09/14 13:27:44;;;;;;;4.78;3.02;;;;;;;;;;1873028;76;21091;-46
2021/09/14 13:30:13;;;;;;;8.28;3.77;;;;;;;;;;1873181;76;21005;-48
2021/09/14 13:32:42;;;;;;;6.78;3.77;;;;;;;;;;1873037;76;21048;-48
2021/09/14 13:35:10;;;;;;;4.70;2.75;;;;;;;;;;1872927;75;21040;-50
2021/09/14 13:37:39;;;;;;;4.25;3.12;;;;;;;;;;1872932;76;21064;-49
2021/09/14 13:40:09;;;;;;;5.03;3.05;;;;;;;;;;1872959;77;21021;-48
2021/09/14 13:42:38;;;;;;;7.90;3.62;;;;;;;;;;1872944;76;21120;-49
2021/09/14 13:47:54;;;;;;;10.38;4.67;;;;;;;;;;1872906;77;21119;-46
2021/09/14 13:50:22;;;;;;;5.83;3.25;;;;;;;;;;1872896;75;21099;-49
2021/09/14 13:52:51;;;;;;;4.45;2.90;;;;;;;;;;1872992;75;21114;-48
2021/09/14 13:55:20;;;;;;;6.55;4.15;;;;;;;;;;1872816;76;21068;-48
2021/09/14 13:57:49;;;;;;;5.83;2.80;;;;;;;;;;1872870;77;21032;-46
2021/09/14 14:00:18;;;;;;;4.80;2.70;;;;;;;;;;1872993;76;21067;-50
2021/09/14 14:02:47;;;;;;;5.45;2.70;;;;;;;;;;1872803;76;21036;-45
2021/09/14 14:05:15;;;;;;;5.53;2.83;;;;;;;;;;1872801;75;21103;-48
2021/09/14 14:07:44;;;;;;;11.12;3.27;;;;;;;;;;1872701;76;21044;-49
2021/09/14 14:10:13;;;;;;;10.30;4.53;;;;;;;;;;1872855;76;21033;-45
2021/09/14 14:12:42;;;;;;;5.03;2.72;;;;;;;;;;1872886;75;21102;-48
2021/09/14 14:15:11;;;;;;;7.33;3.00;;;;;;;;;;1872894;75;21056;-49
2021/09/14 14:17:39;;;;;;;9.33;3.52;;;;;;;;;;1872903;75;21076;-45
2021/09/14 14:20:10;;;;;;;5.10;3.30;;;;;;;;;;1874176;75;21056;-46
2021/09/14 14:22:38;;;;;;;3.60;2.30;;;;;;;;;;1882293;75;21028;-48
2021/09/14 14:25:08;;;;;;;9.73;4.20;;;;;;;;;;1882466;75;21102;-48
2021/09/14 14:27:37;;;;;;;5.55;3.37;;;;;;;;;;1882320;75;21041;-47
2021/09/14 14:30:06;;;;;;;9.53;3.22;;;;;;;;;;1882366;75;21104;-47
2021/09/14 14:32:35;;;;;;;7.72;3.10;;;;;;;;;;1882401;76;21040;-46
2021/09/14 14:35:04;;;;;;;9.70;3.50;;;;;;;;;;1882404;76;21040;-46
2021/09/14 14:37:32;;;;;;;13.13;3.75;;;;;;;;;;1882270;75;21114;-49
2021/09/14 14:40:01;;;;;;;3.77;2.92;;;;;;;;;;1882393;75;21098;-49
2021/09/14 14:42:30;;;;;;;5.53;3.08;;;;;;;;;;1882283;76;21045;-47
2021/09/14 14:44:59;;;;;;;4.25;2.50;;;;;;;;;;1882392;75;21067;-48
2021/09/14 14:47:28;;;;;;;6.25;2.75;;;;;;;;;;1882278;76;21107;-50
2021/09/14 14:49:57;;;;;;;8.33;3.20;;;;;;;;;;1882274;76;21098;-46
2021/09/14 14:52:26;;;;;;;7.00;2.98;;;;;;;;;;1882416;76;21040;-47
2021/09/14 14:54:54;;;;;;;6.12;3.47;;;;;;;;;;1882357;76;21036;-50
2021/09/14 14:57:23;;;;;;;11.48;2.95;;;;;;;;;;1882357;76;21044;-47
2021/09/14 14:59:52;;;;;;;5.58;2.47;;;;;;;;;;1882354;75;21029;-48
2021/09/14 15:02:21;;;;;;;7.85;2.80;;;;;;;;;;1882279;75;21068;-48
2021/09/14 15:04:50;;;;;;;6.22;4.12;;;;;;;;;;1882454;75;21095;-50
2021/09/14 15:07:19;;;;;;;9.55;2.98;;;;;;;;;;1882329;76;21044;-48
2021/09/14 15:09:47;;;;;;;11.43;3.80;;;;;;;;;;1882377;75;21106;-47
2021/09/14 15:12:16;;;;;;;4.10;3.00;;;;;;;;;;1882418;75;21028;-47
2021/09/14 15:14:45;;;;;;;8.50;3.50;;;;;;;;;;1882330;76;21040;-46
2021/09/14 15:17:14;;;;;;;6.15;3.98;;;;;;;;;;1882259;75;21052;-46
2021/09/14 15:19:43;;;;;;;9.33;4.00;;;;;;;;;;1882416;76;21102;-48
2021/09/14 15:22:13;;;;;;;7.47;3.58;;;;;;;;;;1882341;75;21056;-45
2021/09/14 15:24:42;;;;;;;6.50;3.00;;;;;;;;;;1882464;75;21123;-45
2021/09/14 15:27:11;;;;;;;5.35;3.30;;;;;;;;;;1882540;76;21025;-48
2021/09/14 15:29:40;;;;;;;4.97;3.83;;;;;;;;;;1882304;75;21079;-49
2021/09/14 15:32:09;;;;;;;17.40;4.62;;;;;;;;;;1882449;76;21098;-48
2021/09/14 15:34:38;;;;;;;11.33;3.75;;;;;;;;;;1882470;75;21012;-49
2021/09/14 15:37:07;;;;;;;9.90;3.80;;;;;;;;;;1882171;75;21044;-47
2021/09/14 15:39:36;;;;;;;17.02;6.10;;;;;;;;;;1882106;75;21040;-47
2021/09/14 15:42:05;;;;;;;13.10;5.40;;;;;;;;;;1882076;75;21096;-48
2021/09/14 15:44:33;;;;;;;13.10;5.12;;;;;;;;;;1882238;75;21021;-46
2021/09/14 15:47:02;;;;;;;11.73;3.83;;;;;;;;;;1882236;75;21048;-49
2021/09/14 15:49:31;;;;;;;9.30;4.58;;;;;;;;;;1882248;75;21025;-47
2021/09/14 15:52:00;;;;;;;14.45;4.28;;;;;;;;;;1882285;75;21108;-46